Weather reports worldwide

Advertisment
Humain, Belgium (6472): temperature & dewpoint: 20.10.2020 10:00:00 - 26.10.2020 10:00:00 (CET)Humain, Belgium (6472): wind speed & gusts: 20.10.2020 10:00:00 - 26.10.2020 10:00:00 (CET)Humain, Belgium (6472): wind direction: 20.10.2020 10:00:00 - 26.10.2020 10:00:00 (CET)Humain, Belgium (6472): reduced air pressure: 20.10.2020 10:00:00 - 26.10.2020 10:00:00 (CET)Humain, Belgium (6472): sunshine duration: 20.10.2020 10:00:00 - 26.10.2020 10:00:00 (CET)Humain, Belgium (6472): precipitation: 20.10.2020 10:00:00 - 26.10.2020 10:00:00 (CET)
Date & Time tt [°C] td [°C] ff [km/h] ff [kn] fx [km/h] fx [kn] dd ppp [hPa] sd [min] rr [mm]
26.10.2020 10:00:00 - - - - - - - - - -
26.10.2020 09:00:00 7,7 6,0 20 11 30 16 SW 1004,3 1 0,0
26.10.2020 08:00:00 7,3 5,7 19 11 31 17 SSW 1003,8 0 0,0
26.10.2020 07:00:00 7,6 6,0 22 12 38 21 SSW 1003,7 0 0,0
26.10.2020 06:00:00 7,7 6,4 19 10 28 15 SSW 1003,2 0 0,0
26.10.2020 05:00:00 8,4 7,3 16 9 28 15 SSW 1003,7 0 0,0
26.10.2020 04:00:00 8,7 7,6 14 7 23 13 SSW 1003,4 0 0,1
26.10.2020 03:00:00 8,6 7,5 12 6 22 12 S 1003,3 0 0,0
26.10.2020 02:00:00 8,3 7,1 15 8 23 12 SSW 1003,1 0 0,0
26.10.2020 01:00:00 8,4 7,1 14 8 32 18 S 1003,3 0 0,5
26.10.2020 00:00:00 9,2 7,7 19 10 37 20 SSW 1004,1 0 1,5
25.10.2020 23:00:00 9,8 7,9 19 10 33 18 SSW 1003,7 0 0,0
25.10.2020 22:00:00 9,7 7,7 21 12 - - SSW 1004,0 0 0,0
25.10.2020 21:00:00 9,7 8,2 22 12 34 19 S 1004,1 0 0,0
25.10.2020 20:00:00 9,7 8,2 19 11 32 17 SSW 1004,5 0 0,0
25.10.2020 19:00:00 9,7 8,1 22 12 - - SSW 1004,6 0 0,0
25.10.2020 18:00:00 9,8 8,3 20 11 32 17 SSW 1004,6 0 0,1
25.10.2020 17:00:00 10,1 8,4 20 11 37 20 SSW 1004,5 0 0,2
25.10.2020 16:00:00 10,2 8,6 17 9 34 19 S 1004,3 0 0,0
25.10.2020 15:00:00 10,4 9,2 23 12 32 18 SSW 1004,3 0 0,1
25.10.2020 14:00:00 10,4 9,2 17 9 32 18 SW 1004,8 0 0,5
25.10.2020 13:00:00 10,5 9,3 14 8 32 18 S 1004,8 0 1,2
25.10.2020 12:00:00 10,7 9,5 21 12 32 17 SSW 1005,6 0 1,4
25.10.2020 11:00:00 10,6 9,2 21 12 40 21 SSW 1005,6 0 1,0
25.10.2020 10:00:00 10,7 9,0 21 11 40 21 S 1005,1 0 0,8
25.10.2020 09:00:00 10,8 8,9 24 13 45 25 S 1005,6 0 0,4
25.10.2020 08:00:00 11,1 8,2 26 14 49 26 S 1005,8 0 0,1
25.10.2020 07:00:00 11,5 8,4 18 10 41 22 S 1005,5 0 0,0
25.10.2020 06:00:00 11,5 8,6 24 13 50 27 S 1005,8 0 0,0
25.10.2020 05:00:00 11,4 9,0 28 15 51 28 S 1005,6 0 0,0
25.10.2020 04:00:00 11,5 9,7 28 15 52 28 S 1006,3 0 0,0
25.10.2020 03:00:00 11,5 9,4 27 15 54 29 S 1007,6 0 0,0
25.10.2020 02:00:00 12,5 9,4 32 17 59 32 S 1007,9 0 0,0
25.10.2020 01:00:00 - - - - - - - - - -
25.10.2020 00:00:00 13,0 9,7 31 17 68 37 SSW 1009,7 0 0,0
24.10.2020 23:00:00 13,0 9,9 35 19 59 32 S 1009,8 0 0,0
24.10.2020 22:00:00 13,2 10,0 23 12 53 29 S 1010,4 0 0,0
24.10.2020 21:00:00 13,2 10,4 26 14 54 29 SSW 1010,8 0 0,0
24.10.2020 20:00:00 13,2 10,6 31 17 48 26 S 1011,5 0 0,0
24.10.2020 19:00:00 12,9 10,8 29 16 49 27 S 1012,2 0 0,0
24.10.2020 18:00:00 12,7 10,7 26 14 47 26 SSW 1012,7 0 0,0
24.10.2020 17:00:00 12,6 10,5 29 16 51 28 S 1013,1 0 0,0
24.10.2020 16:00:00 12,9 10,4 28 15 52 28 SSW 1013,4 0 0,0
24.10.2020 15:00:00 12,4 10,2 28 15 54 29 S 1014,2 0 0,0
24.10.2020 14:00:00 12,6 10,3 33 18 53 28 SSW 1014,6 0 0,0
24.10.2020 13:00:00 11,8 9,8 24 13 46 25 SSW 1015,2 0 0,0
24.10.2020 12:00:00 12,1 9,5 26 14 49 26 SSW 1015,4 0 0,0
24.10.2020 11:00:00 11,7 9,0 29 16 49 26 SSW 1015,7 0 0,0
24.10.2020 10:00:00 11,0 9,1 31 17 52 28 SSW 1015,7 0 0,0
24.10.2020 09:00:00 10,8 8,6 27 14 41 22 SSW 1015,7 0 0,0
24.10.2020 08:00:00 10,8 8,1 26 14 44 24 SSW 1015,6 8 0,0
24.10.2020 07:00:00 11,1 9,3 25 14 41 22 SSW 1015,5 0 0,0
24.10.2020 06:00:00 11,3 10,1 16 9 26 14 SSW 1015,6 0 0,0
24.10.2020 05:00:00 11,1 9,9 13 7 19 10 SSW 1015,5 0 0,0
24.10.2020 04:00:00 10,2 8,9 12 6 20 11 SSW 1015,8 0 0,0
24.10.2020 03:00:00 10,3 8,8 12 6 21 12 SSW 1016,0 0 0,0
24.10.2020 02:00:00 11,7 10,1 17 9 29 16 SSW 1015,7 0 0,0
24.10.2020 01:00:00 11,9 10,3 22 12 32 17 SSW 1015,4 0 0,0
24.10.2020 00:00:00 11,7 10,1 16 9 29 16 SSW 1015,6 0 0,0
23.10.2020 23:00:00 12,4 10,9 16 9 27 14 SSW 1015,6 0 0,1
23.10.2020 22:00:00 12,1 11,0 16 9 24 13 SSW 1014,9 0 0,0
23.10.2020 21:00:00 11,5 10,4 13 7 19 10 SSW 1014,5 0 0,0
23.10.2020 20:00:00 11,6 10,5 11 6 20 11 SSW 1014,1 0 0,0
23.10.2020 19:00:00 11,9 10,6 11 6 16 9 SSW 1014,0 0 0,0
23.10.2020 18:00:00 12,8 11,2 10 5 20 11 SSW 1013,4 0 0,1
23.10.2020 17:00:00 14,2 12,6 9 5 16 9 SW 1012,9 2 0,0
23.10.2020 16:00:00 14,2 12,3 9 5 16 8 SW 1012,4 1 0,0
23.10.2020 15:00:00 14,4 13,0 9 5 24 13 S 1012,1 30 0,0
23.10.2020 14:00:00 13,8 12,7 16 8 23 12 SSW 1012,4 0 1,3
23.10.2020 13:00:00 13,7 12,5 14 8 22 12 SSW 1012,6 0 0,4
23.10.2020 12:00:00 14,1 13,0 13 7 19 10 SSW 1012,8 0 0,8
23.10.2020 11:00:00 13,9 12,8 15 8 23 13 SSW 1012,8 0 0,3
23.10.2020 10:00:00 13,3 12,4 8 5 15 8 S 1012,9 0 0,0
23.10.2020 09:00:00 13,1 12,1 9 5 18 10 SSE 1012,9 0 0,0
23.10.2020 08:00:00 12,8 11,9 9 5 21 11 S 1012,7 0 0,0
23.10.2020 07:00:00 12,9 12,0 14 8 19 10 SSW 1012,9 0 0,1
23.10.2020 06:00:00 13,1 12,1 9 5 18 10 S 1012,6 0 0,4
23.10.2020 05:00:00 13,4 12,2 9 5 20 11 S 1012,9 0 0,2
23.10.2020 04:00:00 13,4 12,2 8 4 15 8 S 1013,3 0 0,1
23.10.2020 03:00:00 13,4 12,2 4 2 15 8 S 1013,6 0 0,0
23.10.2020 02:00:00 13,5 12,2 10 5 19 11 SSW 1014,3 0 0,0
23.10.2020 01:00:00 13,8 12,6 14 8 23 13 SSW 1014,5 0 0,0
23.10.2020 00:00:00 13,7 12,4 6 3 16 8 S 1014,4 0 0,0
22.10.2020 23:00:00 13,5 12,2 8 4 12 6 SSW 1014,7 0 0,0
22.10.2020 22:00:00 13,3 11,9 6 3 18 10 SSW 1014,5 0 0,0
22.10.2020 21:00:00 13,9 12,2 10 6 22 12 SSW 1014,4 0 0,0
22.10.2020 20:00:00 14,7 13,0 16 8 28 15 SSW 1014,2 0 0,0
22.10.2020 19:00:00 14,8 12,9 11 6 27 15 S 1014,1 0 0,0
22.10.2020 18:00:00 14,9 12,6 13 7 34 18 SSW 1013,8 0 7,1
22.10.2020 17:00:00 16,2 12,0 17 9 32 17 S 1013,2 1 0,2
22.10.2020 16:00:00 17,6 12,0 25 13 39 21 SSW 1012,9 49 0,0
22.10.2020 15:00:00 17,5 12,4 22 12 37 20 SSW 1012,9 41 0,0
22.10.2020 14:00:00 16,6 11,7 25 13 38 20 SSW 1013,4 40 0,0
22.10.2020 13:00:00 17,1 12,2 25 14 42 23 SSW 1013,7 29 0,0
22.10.2020 12:00:00 16,5 11,7 24 13 43 23 SSW 1014,0 43 0,0
22.10.2020 11:00:00 15,4 11,9 23 13 44 24 SSW 1014,4 4 0,0
22.10.2020 10:00:00 14,5 11,9 16 9 32 17 S 1014,6 0 0,0
22.10.2020 09:00:00 14,2 11,7 16 9 37 20 SSW 1014,3 0 0,0
22.10.2020 08:00:00 13,7 11,4 27 14 40 22 SSW 1013,6 0 0,0
22.10.2020 07:00:00 13,7 11,6 14 8 31 17 S 1012,6 0 0,0
22.10.2020 06:00:00 14,1 11,9 22 12 34 18 SSW 1012,8 0 0,0
22.10.2020 05:00:00 13,9 11,8 17 9 31 17 S 1012,4 0 0,0
22.10.2020 04:00:00 13,9 11,7 17 9 29 15 SSW 1012,5 0 0,0
22.10.2020 03:00:00 13,6 11,4 16 8 28 15 S 1012,5 0 0,0
22.10.2020 02:00:00 14,0 11,4 19 10 31 17 SSW 1012,3 0 0,0
22.10.2020 01:00:00 14,4 10,8 18 10 34 18 SSW 1011,9 0 0,0
22.10.2020 00:00:00 15,3 10,8 22 12 40 21 SSW 1011,3 0 0,0
21.10.2020 23:00:00 15,3 10,6 24 13 37 20 SSW 1010,7 0 0,0
21.10.2020 22:00:00 16,0 10,7 27 15 47 25 SSW 1009,9 0 0,0
21.10.2020 21:00:00 16,2 11,4 30 16 51 28 SSW 1008,9 0 0,0
21.10.2020 20:00:00 16,5 11,5 31 17 46 25 SSW 1008,2 0 0,0
21.10.2020 19:00:00 17,0 11,0 32 18 51 28 SSW 1007,3 0 0,0
21.10.2020 18:00:00 17,4 11,1 35 19 64 35 SSW 1006,7 19 0,0
21.10.2020 17:00:00 18,2 10,7 42 23 72 39 SSW 1005,5 57 0,0
21.10.2020 16:00:00 18,8 10,7 41 22 74 40 SSW 1004,7 53 0,0
21.10.2020 15:00:00 18,9 10,6 36 19 78 42 SSW 1004,2 40 0,0
21.10.2020 14:00:00 18,7 9,8 42 23 73 40 SSW 1003,7 49 0,0
21.10.2020 13:00:00 18,1 9,3 40 21 71 38 SSW 1003,6 50 0,0
21.10.2020 12:00:00 16,4 9,3 28 15 61 33 S 1004,3 32 0,0
21.10.2020 11:00:00 14,6 8,4 33 18 67 36 S 1004,3 6 0,1
21.10.2020 10:00:00 13,6 7,6 34 18 61 33 S 1005,0 0 0,0
21.10.2020 09:00:00 12,1 8,2 30 16 51 27 S 1005,7 0 0,0
21.10.2020 08:00:00 12,2 7,3 28 15 50 27 S 1005,5 0 0,0
21.10.2020 07:00:00 11,6 8,9 25 14 47 25 S 1005,4 0 0,2
21.10.2020 06:00:00 11,2 8,5 20 11 42 23 S 1005,8 0 0,2
21.10.2020 05:00:00 11,5 9,1 20 11 34 19 S 1006,3 0 0,1
21.10.2020 04:00:00 11,6 8,1 22 12 38 20 S 1006,7 0 0,3
21.10.2020 03:00:00 11,6 8,7 14 8 32 17 S 1007,5 0 0,0
21.10.2020 02:00:00 12,0 9,5 15 8 32 17 S 1008,3 0 0,0
21.10.2020 01:00:00 11,9 10,1 18 10 27 15 S 1008,6 0 0,2
21.10.2020 00:00:00 12,2 10,3 12 6 33 18 S 1009,4 0 0,7
20.10.2020 23:00:00 12,4 10,6 10 5 24 13 S 1009,7 0 0,2
20.10.2020 22:00:00 12,4 10,3 9 5 28 15 S 1010,2 0 0,1
20.10.2020 21:00:00 12,7 10,6 16 9 36 19 S 1010,2 0 0,0
20.10.2020 20:00:00 12,4 10,5 19 10 32 18 S 1010,9 0 0,1
20.10.2020 19:00:00 12,3 10,4 18 10 35 19 S 1011,1 0 0,1
20.10.2020 18:00:00 12,7 10,3 16 8 33 18 S 1011,3 0 0,0
20.10.2020 17:00:00 13,0 10,5 18 10 39 21 S 1011,5 0 0,0
20.10.2020 16:00:00 13,1 10,7 20 11 40 22 S 1011,6 0 0,0
20.10.2020 15:00:00 13,1 10,3 20 11 45 25 SSW 1012,1 0 0,3
20.10.2020 14:00:00 13,7 9,0 29 16 47 26 SSW 1012,2 0 0,0
20.10.2020 13:00:00 13,0 8,8 18 10 42 23 S 1011,7 0 0,0
20.10.2020 12:00:00 12,4 8,2 21 11 38 21 S 1012,4 0 0,0
20.10.2020 11:00:00 12,3 7,5 22 12 44 24 S 1012,5 0 0,0
20.10.2020 10:00:00 11,8 6,9 20 11 35 19 S 1012,3 0 0,0

tt = temperature
td = dewpoint
ff = wind speed
fx = gusts
dd = wind direction
ppp = reduced air pressure
sd = sunshine duration
rr = precipitation

Next stations